CPA100 YSSY-VHHH
Flight info
| Callsign | CPA100 |
|---|---|
| Flight time | N/A |
| Altitude | 36000 |
| Route | RIC6/34L RIC H530 SURVO R340 IGOPO/N0494F380 R340 AMN A461 ZAM A583 PALOS/N0486F400 A583 SABNO V542 BETTY |
| Aircraft | A35K/H-SDE2E3GHIJ3J4J5LM1ORWXY/LB1D1 |
Departure
| Time | 2026-05-04 09:07 |
|---|---|
| Airport | Sydney Kingsford Smith International Airport (YSSY) |
Arrival
| Time | N/A |
|---|---|
| Airport | Hong Kong International Airport (VHHH) |
| Time | Latitude | Longitude | Altitude | Speed | Heading |
|---|---|---|---|---|---|
| 2026-05-04 07:03 | -33.93767 | 151.16809 | 36 ft | 0 kts | 74° |
| 2026-05-04 07:08 | -33.93767 | 151.16808 | 36 ft | 0 kts | 74° |
| 2026-05-04 08:02 | -33.93767 | 151.16807 | 36 ft | 0 kts | 74° |
| 2026-05-04 08:46 | -33.93797 | 151.16748 | 34 ft | 2 kts | 15° |
| 2026-05-04 08:46 | -33.93812 | 151.16744 | 36 ft | 1 kts | 359° |
| 2026-05-04 08:46 | -33.93825 | 151.16744 | 36 ft | 2 kts | 359° |
| 2026-05-04 08:46 | -33.93845 | 151.16744 | 36 ft | 2 kts | 359° |
| 2026-05-04 08:47 | -33.93865 | 151.16746 | 35 ft | 2 kts | 348° |
| 2026-05-04 08:47 | -33.93883 | 151.16752 | 37 ft | 1 kts | 338° |
| 2026-05-04 08:47 | -33.93902 | 151.16762 | 36 ft | 2 kts | 336° |
| 2026-05-04 08:47 | -33.93920 | 151.16770 | 36 ft | 2 kts | 344° |
| 2026-05-04 08:48 | -33.93922 | 151.16771 | 36 ft | 28 kts | 344° |
| 2026-05-04 08:54 | -33.94221 | 151.16862 | 33 ft | 29 kts | 167° |
| 2026-05-04 08:55 | -33.94356 | 151.16900 | 35 ft | 7 kts | 163° |
| 2026-05-04 08:55 | -33.94395 | 151.16960 | 36 ft | 13 kts | 107° |
| 2026-05-04 08:55 | -33.94381 | 151.17086 | 36 ft | 18 kts | 74° |
| 2026-05-04 08:55 | -33.94356 | 151.17192 | 36 ft | 12 kts | 74° |
| 2026-05-04 08:57 | -33.95324 | 151.17569 | 35 ft | 30 kts | 168° |
| 2026-05-04 09:01 | -33.96423 | 151.17896 | 36 ft | 0 kts | 116° |
| 2026-05-04 09:05 | -33.96424 | 151.17899 | 36 ft | 1 kts | 115° |
| 2026-05-04 09:05 | -33.96427 | 151.17933 | 36 ft | 13 kts | 94° |
| 2026-05-04 09:05 | -33.96389 | 151.18033 | 35 ft | 13 kts | 18° |
| 2026-05-04 09:06 | -33.96304 | 151.18038 | 35 ft | 12 kts | 344° |
| 2026-05-04 09:07 | -33.91757 | 151.16653 | 950 ft | 185 kts | 346° |
| 2026-05-04 09:08 | -33.90464 | 151.16377 | 1517 ft | 190 kts | 358° |
| 2026-05-04 09:08 | -33.89117 | 151.16663 | 1870 ft | 205 kts | 17° |
| 2026-05-04 09:08 | -33.87696 | 151.17022 | 2148 ft | 222 kts | 358° |
| 2026-05-04 09:08 | -33.86261 | 151.16350 | 2668 ft | 229 kts | 319° |
| 2026-05-04 09:09 | -33.85493 | 151.14635 | 3376 ft | 237 kts | 283° |
| 2026-05-04 09:09 | -33.85398 | 151.12656 | 4013 ft | 243 kts | 277° |
| 2026-05-04 09:09 | -33.84967 | 151.10723 | 4495 ft | 239 kts | 307° |
| 2026-05-04 09:09 | -33.83975 | 151.09126 | 5035 ft | 246 kts | 309° |
| 2026-05-04 09:10 | -33.82938 | 151.07432 | 5049 ft | 252 kts | 310° |
| 2026-05-04 09:10 | -33.81837 | 151.05828 | 4995 ft | 248 kts | 313° |
| 2026-05-04 09:10 | -33.80692 | 151.04280 | 4999 ft | 247 kts | 314° |
| 2026-05-04 09:10 | -33.79539 | 151.02764 | 5116 ft | 244 kts | 315° |
| 2026-05-04 09:11 | -33.78420 | 151.01314 | 5387 ft | 244 kts | 315° |
| 2026-05-04 09:11 | -33.77266 | 150.99838 | 5838 ft | 245 kts | 315° |
| 2026-05-04 09:11 | -33.76096 | 150.98350 | 6495 ft | 246 kts | 314° |
| 2026-05-04 09:11 | -33.74919 | 150.96856 | 7233 ft | 247 kts | 314° |
| 2026-05-04 09:12 | -33.73733 | 150.95352 | 7933 ft | 249 kts | 314° |
| 2026-05-04 09:12 | -33.72522 | 150.93820 | 8696 ft | 251 kts | 314° |
| 2026-05-04 09:14 | -33.63052 | 150.81876 | 11963 ft | 329 kts | 314° |
| 2026-05-04 09:14 | -33.61444 | 150.79852 | 12331 ft | 341 kts | 314° |
| 2026-05-04 09:14 | -33.59785 | 150.77765 | 12727 ft | 351 kts | 314° |
| 2026-05-04 09:14 | -33.58096 | 150.75670 | 13227 ft | 357 kts | 315° |
| 2026-05-04 09:15 | -33.56314 | 150.73573 | 13764 ft | 362 kts | 316° |
| 2026-05-04 09:15 | -33.54475 | 150.71472 | 14257 ft | 366 kts | 316° |
| 2026-05-04 09:15 | -33.52616 | 150.69366 | 14769 ft | 369 kts | 317° |
| 2026-05-04 09:15 | -33.50752 | 150.67245 | 15285 ft | 372 kts | 316° |
| 2026-05-04 09:17 | -33.35440 | 150.49611 | 19728 ft | 392 kts | 315° |
| 2026-05-04 09:18 | -33.33475 | 150.47344 | 20278 ft | 393 kts | 315° |
| 2026-05-04 09:18 | -33.31548 | 150.45119 | 20837 ft | 393 kts | 315° |
| 2026-05-04 09:18 | -33.29568 | 150.42836 | 21394 ft | 394 kts | 315° |
| 2026-05-04 09:18 | -33.27567 | 150.40533 | 21932 ft | 396 kts | 315° |
| 2026-05-04 09:19 | -33.25599 | 150.38270 | 22477 ft | 398 kts | 315° |
| 2026-05-04 09:19 | -33.23595 | 150.35972 | 22992 ft | 401 kts | 315° |
| 2026-05-04 09:19 | -33.21584 | 150.33656 | 23468 ft | 403 kts | 315° |
| 2026-05-04 09:19 | -33.19563 | 150.31336 | 23922 ft | 406 kts | 315° |
| 2026-05-04 09:20 | -33.17515 | 150.28991 | 24439 ft | 407 kts | 315° |
| 2026-05-04 09:20 | -33.15468 | 150.26653 | 24941 ft | 408 kts | 315° |
| 2026-05-04 09:20 | -33.13440 | 150.24336 | 25513 ft | 408 kts | 315° |
| 2026-05-04 09:20 | -33.11380 | 150.21984 | 25869 ft | 413 kts | 315° |
| 2026-05-04 09:21 | -33.09295 | 150.19600 | 26302 ft | 415 kts | 315° |
| 2026-05-04 09:21 | -33.07210 | 150.17219 | 26786 ft | 416 kts | 315° |
| 2026-05-04 09:21 | -33.05126 | 150.14842 | 27243 ft | 418 kts | 315° |
| 2026-05-04 09:21 | -33.03012 | 150.12434 | 27688 ft | 420 kts | 315° |
| 2026-05-04 09:22 | -33.00902 | 150.10030 | 28093 ft | 422 kts | 315° |
| 2026-05-04 09:22 | -32.98779 | 150.07613 | 28482 ft | 424 kts | 315° |
| 2026-05-04 09:22 | -32.96632 | 150.05172 | 28908 ft | 425 kts | 315° |
| 2026-05-04 09:22 | -32.94489 | 150.02734 | 29296 ft | 427 kts | 315° |
| 2026-05-04 09:23 | -32.92368 | 150.00329 | 29751 ft | 427 kts | 315° |
| 2026-05-04 09:23 | -32.90198 | 149.97877 | 30337 ft | 424 kts | 315° |
| 2026-05-04 09:23 | -32.88094 | 149.95492 | 30893 ft | 420 kts | 314° |
| 2026-05-04 09:23 | -32.85994 | 149.93111 | 31395 ft | 417 kts | 314° |
| 2026-05-04 09:25 | -32.71683 | 149.76936 | 34471 ft | 399 kts | 312° |
| 2026-05-04 09:25 | -32.69671 | 149.74664 | 34757 ft | 398 kts | 312° |
| 2026-05-04 09:26 | -32.67670 | 149.72405 | 35009 ft | 398 kts | 312° |
| 2026-05-04 09:26 | -32.65664 | 149.70139 | 35076 ft | 400 kts | 312° |
| 2026-05-04 09:26 | -32.61640 | 149.65608 | 35085 ft | 398 kts | 312° |
| 2026-05-04 09:27 | -32.57653 | 149.61128 | 35084 ft | 397 kts | 312° |
| 2026-05-04 09:27 | -32.53974 | 149.56312 | 35089 ft | 393 kts | 306° |
| 2026-05-04 09:28 | -32.50498 | 149.51301 | 35087 ft | 393 kts | 306° |
| 2026-05-04 09:28 | -32.47058 | 149.46294 | 35083 ft | 393 kts | 306° |
| 2026-05-04 09:29 | -32.43603 | 149.41282 | 35085 ft | 392 kts | 306° |
| 2026-05-04 09:29 | -32.40165 | 149.36314 | 35084 ft | 392 kts | 306° |
| 2026-05-04 09:30 | -32.36710 | 149.31332 | 35087 ft | 392 kts | 306° |
| 2026-05-04 09:30 | -32.33265 | 149.26370 | 35084 ft | 392 kts | 306° |
| 2026-05-04 09:31 | -32.29809 | 149.21399 | 35087 ft | 392 kts | 306° |
| 2026-05-04 09:31 | -32.26350 | 149.16431 | 35089 ft | 392 kts | 306° |
| 2026-05-04 09:32 | -32.22885 | 149.11459 | 35093 ft | 391 kts | 306° |
| 2026-05-04 09:34 | -32.09081 | 148.91722 | 35095 ft | 390 kts | 306° |
| 2026-05-04 09:34 | -32.05993 | 148.87819 | 35094 ft | 394 kts | 313° |
| 2026-05-04 09:35 | -32.00782 | 148.83365 | 35100 ft | 400 kts | 320° |
| 2026-05-04 09:35 | -31.96125 | 148.79794 | 35095 ft | 401 kts | 320° |
| 2026-05-04 09:37 | -31.78282 | 148.66133 | 35101 ft | 399 kts | 320° |
| 2026-05-04 09:38 | -31.72858 | 148.61975 | 35099 ft | 399 kts | 320° |
| 2026-05-04 09:38 | -31.68967 | 148.58997 | 35100 ft | 399 kts | 320° |
| 2026-05-04 09:39 | -31.64342 | 148.55461 | 35104 ft | 398 kts | 320° |
| 2026-05-04 09:39 | -31.58947 | 148.51343 | 35098 ft | 398 kts | 320° |
| 2026-05-04 09:40 | -31.55058 | 148.48377 | 35101 ft | 398 kts | 320° |
| 2026-05-04 09:40 | -31.50417 | 148.44842 | 35103 ft | 398 kts | 320° |
| 2026-05-04 09:42 | -31.31895 | 148.30776 | 35106 ft | 397 kts | 320° |
| 2026-05-04 09:43 | -31.27285 | 148.27295 | 35102 ft | 397 kts | 320° |
| 2026-05-04 09:43 | -31.22652 | 148.23787 | 35103 ft | 397 kts | 320° |
| 2026-05-04 09:44 | -31.18010 | 148.20277 | 35100 ft | 397 kts | 320° |
| 2026-05-04 09:46 | -30.99503 | 148.06344 | 35103 ft | 396 kts | 320° |
| 2026-05-04 09:46 | -30.94902 | 148.02885 | 35106 ft | 396 kts | 320° |
| 2026-05-04 09:47 | -30.90248 | 147.99394 | 35110 ft | 396 kts | 320° |
| 2026-05-04 09:49 | -30.71738 | 147.85551 | 35107 ft | 396 kts | 320° |
| 2026-05-04 09:51 | -30.55526 | 147.73481 | 35111 ft | 396 kts | 320° |
| 2026-05-04 09:51 | -30.50918 | 147.70060 | 35111 ft | 396 kts | 320° |
| 2026-05-04 09:52 | -30.46270 | 147.66624 | 35110 ft | 396 kts | 320° |
| 2026-05-04 09:52 | -30.41643 | 147.63192 | 35115 ft | 396 kts | 320° |
| 2026-05-04 09:53 | -30.37048 | 147.59785 | 35113 ft | 396 kts | 320° |
| 2026-05-04 09:53 | -30.32411 | 147.56356 | 35120 ft | 396 kts | 320° |
| 2026-05-04 09:54 | -30.27685 | 147.53122 | 35114 ft | 401 kts | 325° |
| 2026-05-04 09:54 | -30.22672 | 147.50261 | 35113 ft | 402 kts | 326° |
| 2026-05-04 09:55 | -30.17634 | 147.47461 | 35120 ft | 402 kts | 326° |
| 2026-05-04 09:55 | -30.12580 | 147.44656 | 35122 ft | 402 kts | 326° |
| 2026-05-04 09:56 | -30.07576 | 147.41872 | 35128 ft | 402 kts | 326° |
| 2026-05-04 09:56 | -30.02544 | 147.39070 | 35112 ft | 402 kts | 326° |
| 2026-05-04 09:57 | -29.97503 | 147.36266 | 35109 ft | 402 kts | 326° |
| 2026-05-04 09:57 | -29.92466 | 147.33468 | 35119 ft | 402 kts | 326° |
| 2026-05-04 09:58 | -29.87420 | 147.30669 | 35118 ft | 402 kts | 326° |
| 2026-05-04 09:58 | -29.84885 | 147.29263 | 35117 ft | 402 kts | 326° |
| 2026-05-04 10:00 | -29.64753 | 147.18132 | 35120 ft | 402 kts | 326° |
| 2026-05-04 10:04 | -29.29420 | 146.98714 | 35120 ft | 403 kts | 326° |
| 2026-05-04 10:04 | -29.24352 | 146.95952 | 35119 ft | 404 kts | 326° |
| 2026-05-04 10:05 | -29.19324 | 146.93199 | 35120 ft | 404 kts | 326° |
| 2026-05-04 10:05 | -29.14258 | 146.90429 | 35120 ft | 404 kts | 326° |
| 2026-05-04 10:06 | -29.09194 | 146.87666 | 35123 ft | 404 kts | 326° |
| 2026-05-04 10:06 | -29.04104 | 146.84894 | 35124 ft | 404 kts | 326° |
| 2026-05-04 10:08 | -28.89612 | 146.77017 | 35124 ft | 405 kts | 326° |
| 2026-05-04 10:08 | -28.84563 | 146.74279 | 35118 ft | 405 kts | 326° |
| 2026-05-04 10:09 | -28.79489 | 146.71530 | 35121 ft | 405 kts | 326° |
| 2026-05-04 10:09 | -28.74510 | 146.68573 | 35124 ft | 398 kts | 320° |
| 2026-05-04 10:10 | -28.70023 | 146.64924 | 35124 ft | 395 kts | 317° |
| 2026-05-04 10:10 | -28.65615 | 146.61153 | 35233 ft | 400 kts | 317° |
| 2026-05-04 10:11 | -28.61169 | 146.57338 | 35434 ft | 406 kts | 317° |
| 2026-05-04 10:11 | -28.56626 | 146.53468 | 35605 ft | 410 kts | 317° |
| 2026-05-04 10:12 | -28.52017 | 146.49557 | 35734 ft | 413 kts | 317° |
| 2026-05-04 10:12 | -28.47396 | 146.45642 | 35813 ft | 415 kts | 317° |
| 2026-05-04 10:13 | -28.42792 | 146.41743 | 35812 ft | 417 kts | 317° |
| 2026-05-04 10:13 | -28.38147 | 146.37814 | 35806 ft | 418 kts | 317° |
| 2026-05-04 10:14 | -28.33454 | 146.33849 | 35800 ft | 419 kts | 317° |
| 2026-05-04 10:16 | -28.14786 | 146.18117 | 35785 ft | 420 kts | 318° |
| 2026-05-04 10:16 | -28.10069 | 146.14153 | 35784 ft | 420 kts | 318° |
| 2026-05-04 10:17 | -28.05399 | 146.10233 | 35780 ft | 420 kts | 318° |
| 2026-05-04 10:19 | -27.86598 | 145.94493 | 35767 ft | 421 kts | 318° |
| 2026-05-04 10:19 | -27.81875 | 145.90550 | 35759 ft | 422 kts | 318° |
| 2026-05-04 10:20 | -27.77173 | 145.86630 | 35753 ft | 422 kts | 318° |
| 2026-05-04 10:20 | -27.72458 | 145.82702 | 35752 ft | 422 kts | 318° |
| 2026-05-04 10:21 | -27.67748 | 145.78783 | 35752 ft | 422 kts | 318° |
| 2026-05-04 10:21 | -27.63006 | 145.74841 | 35742 ft | 423 kts | 318° |
| 2026-05-04 10:22 | -27.55929 | 145.68966 | 35739 ft | 423 kts | 318° |
| 2026-05-04 10:23 | -27.51161 | 145.65014 | 35730 ft | 424 kts | 318° |
| 2026-05-04 10:25 | -27.32161 | 145.49309 | 35712 ft | 425 kts | 318° |
| 2026-05-04 10:25 | -27.27389 | 145.45376 | 35707 ft | 425 kts | 318° |
| 2026-05-04 10:26 | -27.22602 | 145.41441 | 35703 ft | 426 kts | 318° |
| 2026-05-04 10:26 | -27.17818 | 145.37505 | 35701 ft | 426 kts | 318° |
| 2026-05-04 10:27 | -27.13039 | 145.33574 | 35695 ft | 427 kts | 318° |
| 2026-05-04 10:27 | -27.08272 | 145.29659 | 35690 ft | 427 kts | 318° |
| 2026-05-04 10:28 | -27.03483 | 145.25733 | 35682 ft | 428 kts | 319° |
| 2026-05-04 10:28 | -26.98684 | 145.21802 | 35681 ft | 428 kts | 319° |
| 2026-05-04 10:29 | -26.93882 | 145.17873 | 35676 ft | 429 kts | 319° |
| 2026-05-04 10:29 | -26.89083 | 145.13953 | 35671 ft | 429 kts | 319° |
| 2026-05-04 10:30 | -26.84243 | 145.10003 | 35664 ft | 429 kts | 319° |
| 2026-05-04 10:30 | -26.79423 | 145.06083 | 35660 ft | 429 kts | 319° |
| 2026-05-04 10:31 | -26.74594 | 145.02147 | 35655 ft | 430 kts | 319° |
| 2026-05-04 10:32 | -26.57703 | 144.88414 | 35636 ft | 431 kts | 319° |
| 2026-05-04 10:33 | -26.52849 | 144.84479 | 35633 ft | 431 kts | 319° |
| 2026-05-04 10:33 | -26.47960 | 144.80521 | 35628 ft | 431 kts | 319° |
| 2026-05-04 10:34 | -26.43145 | 144.76627 | 35629 ft | 432 kts | 319° |
| 2026-05-04 10:34 | -26.38298 | 144.72710 | 35624 ft | 432 kts | 319° |
| 2026-05-04 10:35 | -26.33393 | 144.68751 | 35618 ft | 432 kts | 319° |
| 2026-05-04 10:35 | -26.28557 | 144.64852 | 35612 ft | 433 kts | 319° |
| 2026-05-04 10:36 | -26.23690 | 144.60932 | 35613 ft | 433 kts | 319° |
| 2026-05-04 10:36 | -26.18790 | 144.56989 | 35606 ft | 433 kts | 319° |
| 2026-05-04 10:37 | -26.13933 | 144.53085 | 35605 ft | 433 kts | 319° |
| 2026-05-04 10:37 | -26.09060 | 144.49173 | 35597 ft | 434 kts | 319° |
| 2026-05-04 10:39 | -25.95428 | 144.38292 | 40603 ft | 309 kts | 318° |
| 2026-05-04 10:39 | -25.93745 | 144.36989 | 41864 ft | 272 kts | 317° |
| 2026-05-04 10:39 | -25.92244 | 144.35845 | 42071 ft | 266 kts | 317° |
| 2026-05-04 10:40 | -25.90657 | 144.34602 | 41007 ft | 292 kts | 317° |
| 2026-05-04 10:40 | -25.88981 | 144.33226 | 40429 ft | 302 kts | 317° |
| 2026-05-04 10:40 | -25.87367 | 144.31868 | 41046 ft | 275 kts | 316° |
| 2026-05-04 10:40 | -25.85909 | 144.30630 | 41405 ft | 263 kts | 315° |
| 2026-05-04 10:41 | -25.84440 | 144.29340 | 40692 ft | 280 kts | 315° |
| 2026-05-04 10:41 | -25.82891 | 144.27903 | 40041 ft | 295 kts | 314° |
| 2026-05-04 10:41 | -25.81400 | 144.26454 | 40375 ft | 276 kts | 313° |
| 2026-05-04 10:41 | -25.80025 | 144.25074 | 40809 ft | 260 kts | 311° |
| 2026-05-04 10:42 | -25.78676 | 144.23661 | 40340 ft | 271 kts | 311° |
| 2026-05-04 10:42 | -25.77334 | 144.22163 | 39718 ft | 286 kts | 310° |
| 2026-05-04 10:42 | -25.75982 | 144.20554 | 39842 ft | 275 kts | 309° |
| 2026-05-04 10:42 | -25.74769 | 144.19019 | 40270 ft | 258 kts | 307° |
| 2026-05-04 10:43 | -25.73621 | 144.17474 | 40056 ft | 263 kts | 306° |
| 2026-05-04 10:44 | -25.65262 | 144.06359 | 38588 ft | 294 kts | 323° |
| 2026-05-04 10:45 | -25.63514 | 144.05205 | 38576 ft | 291 kts | 320° |
| 2026-05-04 10:45 | -25.61842 | 144.03947 | 38559 ft | 291 kts | 320° |
| 2026-05-04 10:45 | -25.60170 | 144.02671 | 38488 ft | 293 kts | 320° |
| 2026-05-04 10:45 | -25.58482 | 144.01380 | 38410 ft | 296 kts | 320° |
| 2026-05-04 10:46 | -25.56779 | 144.00075 | 38322 ft | 299 kts | 320° |
| 2026-05-04 10:46 | -25.53361 | 143.97449 | 38157 ft | 305 kts | 320° |
| 2026-05-04 10:47 | -25.49827 | 143.94719 | 37931 ft | 315 kts | 320° |
| 2026-05-04 10:47 | -25.48010 | 143.93309 | 37809 ft | 321 kts | 320° |
| 2026-05-04 10:47 | -25.46182 | 143.91885 | 37668 ft | 328 kts | 319° |
| 2026-05-04 10:47 | -25.44278 | 143.90395 | 37482 ft | 335 kts | 319° |
| 2026-05-04 10:49 | -25.29459 | 143.78875 | 35497 ft | 406 kts | 321° |
| 2026-05-04 10:49 | -25.27269 | 143.77220 | 35666 ft | 402 kts | 321° |
| 2026-05-04 10:50 | -25.24993 | 143.75500 | 35941 ft | 400 kts | 321° |
| 2026-05-04 10:51 | -25.08513 | 143.62982 | 36135 ft | 421 kts | 321° |
| 2026-05-04 10:52 | -25.06079 | 143.61138 | 36130 ft | 422 kts | 321° |
| 2026-05-04 10:52 | -25.01247 | 143.57481 | 36139 ft | 421 kts | 321° |
| 2026-05-04 10:54 | -24.81926 | 143.42879 | 36136 ft | 422 kts | 321° |
| 2026-05-04 10:56 | -24.62568 | 143.28304 | 36131 ft | 423 kts | 321° |
| 2026-05-04 10:57 | -24.57718 | 143.24661 | 36133 ft | 423 kts | 321° |
| 2026-05-04 10:57 | -24.52860 | 143.21017 | 36133 ft | 423 kts | 321° |
| 2026-05-04 10:58 | -24.48032 | 143.17397 | 36132 ft | 423 kts | 321° |
| 2026-05-04 10:58 | -24.43171 | 143.13756 | 36134 ft | 423 kts | 321° |
| 2026-05-04 10:59 | -24.38307 | 143.10116 | 36133 ft | 423 kts | 321° |
| 2026-05-04 10:59 | -24.33438 | 143.06476 | 36133 ft | 424 kts | 321° |
| 2026-05-04 11:00 | -24.28572 | 143.02842 | 36133 ft | 424 kts | 321° |
| 2026-05-04 11:02 | -24.09078 | 142.88318 | 36134 ft | 425 kts | 321° |
| 2026-05-04 11:05 | -23.72369 | 142.61114 | 36130 ft | 427 kts | 321° |
| 2026-05-04 11:06 | -23.67451 | 142.57483 | 36128 ft | 427 kts | 322° |
| 2026-05-04 11:06 | -23.62527 | 142.53852 | 36126 ft | 427 kts | 322° |
| 2026-05-04 11:10 | -23.28034 | 142.28508 | 36117 ft | 429 kts | 322° |
| 2026-05-04 11:12 | -23.08208 | 142.14013 | 36121 ft | 431 kts | 322° |
| 2026-05-04 11:12 | -23.03219 | 142.10374 | 36118 ft | 431 kts | 322° |
| 2026-05-04 11:13 | -22.98236 | 142.06743 | 36119 ft | 432 kts | 322° |
| 2026-05-04 11:13 | -22.93282 | 142.03135 | 36117 ft | 432 kts | 322° |
| 2026-05-04 11:14 | -22.88300 | 141.99510 | 36117 ft | 432 kts | 322° |
| 2026-05-04 11:16 | -22.68338 | 141.85023 | 36124 ft | 433 kts | 322° |
| 2026-05-04 11:16 | -22.63350 | 141.81372 | 36123 ft | 432 kts | 321° |
| 2026-05-04 11:17 | -22.58440 | 141.77670 | 36122 ft | 432 kts | 321° |
| 2026-05-04 11:19 | -22.38774 | 141.62938 | 36122 ft | 433 kts | 322° |
| 2026-05-04 11:19 | -22.33827 | 141.59250 | 36119 ft | 433 kts | 322° |
| 2026-05-04 11:20 | -22.28861 | 141.55551 | 36115 ft | 434 kts | 322° |
| 2026-05-04 11:20 | -22.23914 | 141.51868 | 36123 ft | 434 kts | 322° |
| 2026-05-04 11:22 | -22.04011 | 141.37085 | 36121 ft | 435 kts | 322° |
| 2026-05-04 11:23 | -21.99018 | 141.33384 | 36133 ft | 436 kts | 322° |
| 2026-05-04 11:25 | -21.81552 | 141.20464 | 36130 ft | 437 kts | 322° |
| 2026-05-04 11:25 | -21.76537 | 141.16763 | 36130 ft | 438 kts | 322° |
| 2026-05-04 11:27 | -21.53956 | 141.00132 | 36122 ft | 438 kts | 322° |
| 2026-05-04 11:28 | -21.48915 | 140.96428 | 36121 ft | 439 kts | 322° |
| 2026-05-04 11:28 | -21.43881 | 140.92733 | 36120 ft | 439 kts | 322° |
| 2026-05-04 11:29 | -21.38870 | 140.89057 | 36118 ft | 439 kts | 322° |
| 2026-05-04 11:29 | -21.33826 | 140.85370 | 36122 ft | 439 kts | 322° |
| 2026-05-04 11:33 | -20.98433 | 140.59511 | 36114 ft | 442 kts | 322° |
| 2026-05-04 11:33 | -20.93382 | 140.55834 | 36116 ft | 442 kts | 322° |
| 2026-05-04 11:34 | -20.88282 | 140.52124 | 36111 ft | 443 kts | 322° |
| 2026-05-04 11:34 | -20.83190 | 140.48425 | 36113 ft | 444 kts | 322° |
| 2026-05-04 11:35 | -20.78084 | 140.44717 | 36112 ft | 444 kts | 322° |
| 2026-05-04 11:35 | -20.72996 | 140.41026 | 36109 ft | 444 kts | 322° |
| 2026-05-04 11:36 | -20.67883 | 140.37320 | 36109 ft | 445 kts | 322° |
| 2026-05-04 11:36 | -20.62779 | 140.33623 | 36112 ft | 445 kts | 322° |
| 2026-05-04 11:37 | -20.57646 | 140.29908 | 36109 ft | 445 kts | 322° |
| 2026-05-04 11:37 | -20.52537 | 140.26214 | 36108 ft | 445 kts | 322° |
| 2026-05-04 11:38 | -20.47414 | 140.22513 | 36115 ft | 446 kts | 322° |
| 2026-05-04 11:38 | -20.42291 | 140.18814 | 36102 ft | 446 kts | 322° |
| 2026-05-04 11:39 | -20.37138 | 140.15098 | 36110 ft | 446 kts | 323° |
| 2026-05-04 11:41 | -20.19169 | 140.02161 | 36107 ft | 447 kts | 323° |
| 2026-05-04 11:41 | -20.14022 | 139.98462 | 36104 ft | 447 kts | 323° |
| 2026-05-04 11:42 | -20.08875 | 139.94766 | 36105 ft | 447 kts | 323° |
| 2026-05-04 11:42 | -20.03750 | 139.91089 | 36104 ft | 447 kts | 323° |
| 2026-05-04 11:43 | -19.98584 | 139.87386 | 36102 ft | 447 kts | 323° |
| 2026-05-04 11:43 | -19.93431 | 139.83694 | 36101 ft | 447 kts | 323° |
| 2026-05-04 11:44 | -19.88273 | 139.80002 | 36096 ft | 447 kts | 323° |
| 2026-05-04 11:44 | -19.83151 | 139.76338 | 36097 ft | 448 kts | 323° |
| 2026-05-04 11:45 | -19.77973 | 139.72638 | 36099 ft | 448 kts | 323° |
| 2026-05-04 11:45 | -19.72794 | 139.68940 | 36092 ft | 449 kts | 323° |
| 2026-05-04 11:46 | -19.67604 | 139.65237 | 36093 ft | 449 kts | 323° |
| 2026-05-04 11:46 | -19.62407 | 139.61530 | 36091 ft | 450 kts | 323° |
| 2026-05-04 11:47 | -19.57218 | 139.57834 | 36090 ft | 450 kts | 323° |
| 2026-05-04 11:47 | -19.52046 | 139.54163 | 36090 ft | 450 kts | 323° |
| 2026-05-04 11:48 | -19.46852 | 139.50466 | 36084 ft | 451 kts | 323° |
| 2026-05-04 11:48 | -19.41629 | 139.46750 | 36092 ft | 451 kts | 323° |
| 2026-05-04 11:49 | -19.36433 | 139.43060 | 36088 ft | 452 kts | 323° |
| 2026-05-04 11:49 | -19.31194 | 139.39343 | 36085 ft | 452 kts | 323° |
| 2026-05-04 11:50 | -19.26002 | 139.35661 | 36082 ft | 453 kts | 323° |
| 2026-05-04 11:50 | -19.20749 | 139.31940 | 36080 ft | 453 kts | 323° |
| 2026-05-04 11:51 | -19.15730 | 139.28387 | 36075 ft | 454 kts | 323° |
| 2026-05-04 11:51 | -19.10493 | 139.24684 | 36073 ft | 455 kts | 323° |
| 2026-05-04 11:52 | -19.06632 | 139.21955 | 36070 ft | 455 kts | 323° |
| 2026-05-04 11:52 | -19.01376 | 139.18242 | 36071 ft | 455 kts | 323° |
| 2026-05-04 11:53 | -18.96112 | 139.14526 | 36067 ft | 456 kts | 323° |
| 2026-05-04 11:53 | -18.90826 | 139.10799 | 36070 ft | 456 kts | 323° |
| 2026-05-04 11:55 | -18.69736 | 138.95954 | 36061 ft | 457 kts | 323° |
| 2026-05-04 11:56 | -18.64466 | 138.92252 | 36063 ft | 457 kts | 323° |
| 2026-05-04 11:56 | -18.59146 | 138.88517 | 36058 ft | 458 kts | 323° |
| 2026-05-04 11:57 | -18.53878 | 138.84822 | 36053 ft | 458 kts | 323° |
| 2026-05-04 11:57 | -18.48568 | 138.81100 | 36054 ft | 458 kts | 323° |
| 2026-05-04 11:58 | -18.43249 | 138.77374 | 36064 ft | 459 kts | 323° |
| 2026-05-04 11:58 | -18.37945 | 138.73662 | 36062 ft | 459 kts | 323° |
| 2026-05-04 11:59 | -18.32662 | 138.69967 | 36055 ft | 460 kts | 323° |
| 2026-05-04 11:59 | -18.27336 | 138.66245 | 36058 ft | 460 kts | 323° |
| 2026-05-04 12:00 | -18.21981 | 138.62505 | 36053 ft | 461 kts | 323° |
| 2026-05-04 12:00 | -18.16661 | 138.58793 | 36050 ft | 461 kts | 323° |
| 2026-05-04 12:01 | -18.11342 | 138.55084 | 36057 ft | 461 kts | 323° |
| 2026-05-04 12:02 | -17.92594 | 138.42033 | 36051 ft | 461 kts | 323° |
| 2026-05-04 12:03 | -17.87288 | 138.38346 | 36052 ft | 461 kts | 323° |
| 2026-05-04 12:03 | -17.81937 | 138.34630 | 36051 ft | 461 kts | 323° |
| 2026-05-04 12:04 | -17.76572 | 138.30906 | 36046 ft | 462 kts | 323° |
| 2026-05-04 12:04 | -17.71215 | 138.27191 | 36047 ft | 462 kts | 323° |
| 2026-05-04 12:05 | -17.65840 | 138.23467 | 36046 ft | 463 kts | 323° |
| 2026-05-04 12:05 | -17.60503 | 138.19772 | 36046 ft | 463 kts | 323° |
| 2026-05-04 12:06 | -17.55132 | 138.16056 | 36048 ft | 464 kts | 323° |
| 2026-05-04 12:06 | -17.49726 | 138.12317 | 36047 ft | 464 kts | 323° |
| 2026-05-04 12:07 | -17.44366 | 138.08614 | 36049 ft | 464 kts | 323° |
| 2026-05-04 12:07 | -17.38984 | 138.04898 | 36043 ft | 465 kts | 323° |
| 2026-05-04 12:08 | -17.33590 | 138.01177 | 36044 ft | 465 kts | 323° |
| 2026-05-04 12:08 | -17.28177 | 137.97445 | 36044 ft | 465 kts | 323° |
| 2026-05-04 12:09 | -17.22786 | 137.93731 | 36044 ft | 465 kts | 323° |
| 2026-05-04 12:09 | -17.17414 | 137.90032 | 36042 ft | 465 kts | 323° |
| 2026-05-04 12:10 | -17.11984 | 137.86297 | 36039 ft | 465 kts | 323° |
| 2026-05-04 12:10 | -17.06607 | 137.82600 | 36039 ft | 465 kts | 323° |
| 2026-05-04 12:11 | -17.01199 | 137.78884 | 36037 ft | 466 kts | 323° |
| 2026-05-04 12:11 | -16.95779 | 137.75163 | 36038 ft | 466 kts | 323° |
| 2026-05-04 12:12 | -16.90408 | 137.71478 | 36034 ft | 467 kts | 324° |
| 2026-05-04 12:12 | -16.84951 | 137.67736 | 36032 ft | 467 kts | 324° |
| 2026-05-04 12:14 | -16.63207 | 137.52856 | 36032 ft | 469 kts | 324° |
| 2026-05-04 12:15 | -16.57788 | 137.49154 | 36029 ft | 469 kts | 324° |
| 2026-05-04 12:15 | -16.53233 | 137.46044 | 36023 ft | 470 kts | 324° |
| 2026-05-04 12:16 | -16.46852 | 137.41690 | 36017 ft | 470 kts | 324° |
| 2026-05-04 12:16 | -16.42305 | 137.38589 | 36018 ft | 470 kts | 324° |
| 2026-05-04 12:17 | -16.35935 | 137.34247 | 36020 ft | 471 kts | 324° |
| 2026-05-04 12:17 | -16.31374 | 137.31142 | 36016 ft | 471 kts | 324° |
| 2026-05-04 12:18 | -16.25896 | 137.27415 | 36013 ft | 472 kts | 324° |
| 2026-05-04 12:18 | -16.20379 | 137.23664 | 36014 ft | 472 kts | 324° |
| 2026-05-04 12:19 | -16.14910 | 137.19948 | 36014 ft | 472 kts | 324° |
| 2026-05-04 12:19 | -16.09414 | 137.16215 | 36008 ft | 473 kts | 324° |
| 2026-05-04 12:20 | -16.03915 | 137.12483 | 36009 ft | 473 kts | 324° |
| 2026-05-04 12:20 | -15.98395 | 137.08739 | 36008 ft | 473 kts | 324° |
| 2026-05-04 12:21 | -15.92895 | 137.05012 | 36008 ft | 473 kts | 324° |
| 2026-05-04 12:21 | -15.87397 | 137.01288 | 36009 ft | 474 kts | 324° |
| 2026-05-04 12:22 | -15.81874 | 136.97550 | 36010 ft | 474 kts | 324° |
| 2026-05-04 12:22 | -15.76365 | 136.93824 | 36007 ft | 474 kts | 324° |
| 2026-05-04 12:23 | -15.70823 | 136.90078 | 36006 ft | 474 kts | 324° |
| 2026-05-04 12:23 | -15.65308 | 136.86352 | 36007 ft | 474 kts | 324° |
| 2026-05-04 12:24 | -15.59796 | 136.82631 | 36005 ft | 475 kts | 324° |
| 2026-05-04 12:24 | -15.54260 | 136.78896 | 36008 ft | 475 kts | 324° |
| 2026-05-04 12:25 | -15.48717 | 136.75159 | 36006 ft | 476 kts | 324° |
| 2026-05-04 12:25 | -15.43159 | 136.71415 | 36007 ft | 476 kts | 324° |
| 2026-05-04 12:26 | -15.37649 | 136.67705 | 36005 ft | 476 kts | 324° |
| 2026-05-04 12:26 | -15.32164 | 136.63867 | 36007 ft | 475 kts | 321° |
| 2026-05-04 12:27 | -15.26886 | 136.59767 | 36006 ft | 475 kts | 320° |
| 2026-05-04 12:27 | -15.21597 | 136.55648 | 36008 ft | 475 kts | 321° |
| 2026-05-04 12:28 | -15.16285 | 136.51586 | 36004 ft | 476 kts | 321° |
| 2026-05-04 12:28 | -15.10969 | 136.47557 | 36005 ft | 476 kts | 321° |
| 2026-05-04 12:29 | -15.05625 | 136.43513 | 36006 ft | 476 kts | 321° |
| 2026-05-04 12:29 | -15.00278 | 136.39467 | 36004 ft | 477 kts | 321° |
| 2026-05-04 12:30 | -14.94919 | 136.35412 | 36003 ft | 477 kts | 321° |
| 2026-05-04 12:30 | -14.89597 | 136.31388 | 36003 ft | 477 kts | 321° |
| 2026-05-04 12:31 | -14.84237 | 136.27337 | 36003 ft | 478 kts | 321° |
| 2026-05-04 12:31 | -14.78874 | 136.23287 | 36005 ft | 478 kts | 321° |
| 2026-05-04 12:32 | -14.70827 | 136.17214 | 36003 ft | 479 kts | 321° |
| 2026-05-04 12:33 | -14.65452 | 136.13162 | 36002 ft | 479 kts | 322° |
| 2026-05-04 12:33 | -14.60060 | 136.09098 | 36003 ft | 479 kts | 322° |
| 2026-05-04 12:34 | -14.54677 | 136.05045 | 36005 ft | 480 kts | 322° |
| 2026-05-04 12:34 | -14.49274 | 136.00978 | 36003 ft | 480 kts | 322° |
| 2026-05-04 12:35 | -14.43915 | 135.96947 | 36004 ft | 481 kts | 322° |
| 2026-05-04 12:35 | -14.38509 | 135.92883 | 36004 ft | 481 kts | 322° |
| 2026-05-04 12:36 | -14.33096 | 135.88817 | 36003 ft | 481 kts | 322° |
| 2026-05-04 12:36 | -14.27678 | 135.84749 | 36005 ft | 481 kts | 322° |
| 2026-05-04 12:37 | -14.22296 | 135.80711 | 36003 ft | 482 kts | 322° |
| 2026-05-04 12:37 | -14.16884 | 135.76653 | 36002 ft | 482 kts | 322° |
| 2026-05-04 12:38 | -14.11448 | 135.72578 | 36006 ft | 483 kts | 322° |
| 2026-05-04 12:38 | -14.06031 | 135.68521 | 36004 ft | 483 kts | 322° |
| 2026-05-04 12:39 | -14.00627 | 135.64476 | 36006 ft | 483 kts | 322° |
| 2026-05-04 12:39 | -13.95173 | 135.60397 | 36007 ft | 484 kts | 322° |
| 2026-05-04 12:40 | -13.89732 | 135.56340 | 36005 ft | 484 kts | 322° |
| 2026-05-04 12:40 | -13.84281 | 135.52263 | 36007 ft | 484 kts | 322° |
| 2026-05-04 12:41 | -13.78840 | 135.48194 | 36007 ft | 484 kts | 322° |
| 2026-05-04 12:41 | -13.73405 | 135.44137 | 36008 ft | 485 kts | 322° |
| 2026-05-04 12:42 | -13.67962 | 135.40077 | 36007 ft | 485 kts | 322° |
| 2026-05-04 12:42 | -13.62504 | 135.36009 | 36008 ft | 485 kts | 322° |
| 2026-05-04 12:43 | -13.57035 | 135.31935 | 36009 ft | 485 kts | 322° |
| 2026-05-04 12:43 | -13.51591 | 135.27882 | 36010 ft | 486 kts | 322° |
| 2026-05-04 12:44 | -13.46132 | 135.23819 | 36006 ft | 486 kts | 322° |
| 2026-05-04 12:44 | -13.40641 | 135.19736 | 36004 ft | 486 kts | 322° |
| 2026-05-04 12:45 | -13.35171 | 135.15671 | 36007 ft | 487 kts | 322° |
| 2026-05-04 12:45 | -13.29713 | 135.11616 | 36006 ft | 487 kts | 322° |
| 2026-05-04 12:46 | -13.24224 | 135.07541 | 36006 ft | 487 kts | 322° |
| 2026-05-04 12:46 | -13.18738 | 135.03471 | 36004 ft | 487 kts | 322° |
| 2026-05-04 12:47 | -13.13238 | 134.99393 | 36003 ft | 488 kts | 322° |
| 2026-05-04 12:47 | -13.07733 | 134.95313 | 36001 ft | 488 kts | 322° |
| 2026-05-04 12:48 | -13.02262 | 134.91260 | 35999 ft | 488 kts | 322° |
| 2026-05-04 12:48 | -12.96758 | 134.87186 | 35995 ft | 489 kts | 322° |
| 2026-05-04 12:49 | -12.91236 | 134.83100 | 35996 ft | 489 kts | 322° |
| 2026-05-04 12:49 | -12.85770 | 134.79059 | 35998 ft | 489 kts | 322° |
| 2026-05-04 12:50 | -12.80234 | 134.74967 | 35998 ft | 489 kts | 322° |
| 2026-05-04 12:50 | -12.74733 | 134.70904 | 35996 ft | 490 kts | 322° |
| 2026-05-04 12:51 | -12.69189 | 134.66810 | 35995 ft | 490 kts | 322° |
| 2026-05-04 12:51 | -12.63659 | 134.62730 | 35993 ft | 490 kts | 322° |
| 2026-05-04 12:52 | -12.58148 | 134.58666 | 35990 ft | 490 kts | 322° |
| 2026-05-04 12:52 | -12.52615 | 134.54587 | 35991 ft | 491 kts | 322° |
| 2026-05-04 12:53 | -12.47074 | 134.50506 | 35991 ft | 491 kts | 322° |
| 2026-05-04 12:53 | -12.41545 | 134.46436 | 35991 ft | 491 kts | 322° |
| 2026-05-04 12:54 | -12.35994 | 134.42351 | 35989 ft | 492 kts | 322° |
| 2026-05-04 12:54 | -12.30457 | 134.38279 | 35989 ft | 492 kts | 322° |
| 2026-05-04 12:55 | -12.24905 | 134.34197 | 35986 ft | 492 kts | 322° |
| 2026-05-04 12:55 | -12.19375 | 134.30134 | 35982 ft | 492 kts | 322° |
| 2026-05-04 12:56 | -12.13797 | 134.26038 | 35984 ft | 493 kts | 322° |
| 2026-05-04 12:56 | -12.08224 | 134.21948 | 35984 ft | 493 kts | 322° |
| 2026-05-04 12:57 | -12.02653 | 134.17862 | 35978 ft | 493 kts | 322° |
| 2026-05-04 12:57 | -11.97109 | 134.13797 | 35976 ft | 493 kts | 322° |
| 2026-05-04 12:58 | -11.91526 | 134.09708 | 36011 ft | 496 kts | 322° |
| 2026-05-04 12:58 | -11.85906 | 134.05591 | 36007 ft | 498 kts | 322° |
| 2026-05-04 12:59 | -11.80273 | 134.01467 | 35988 ft | 499 kts | 322° |
| 2026-05-04 12:59 | -11.74657 | 133.97358 | 35984 ft | 500 kts | 322° |
| 2026-05-04 13:00 | -11.69017 | 133.93234 | 35981 ft | 500 kts | 322° |
| 2026-05-04 13:00 | -11.63334 | 133.89081 | 35979 ft | 501 kts | 322° |
| 2026-05-04 13:01 | -11.57711 | 133.84973 | 35977 ft | 501 kts | 322° |
| 2026-05-04 13:01 | -11.52014 | 133.80814 | 35974 ft | 501 kts | 322° |
| 2026-05-04 13:02 | -11.46363 | 133.76690 | 35967 ft | 502 kts | 322° |
| 2026-05-04 13:02 | -11.40686 | 133.72550 | 35965 ft | 502 kts | 322° |
| 2026-05-04 13:03 | -11.35008 | 133.68411 | 35966 ft | 502 kts | 322° |
| 2026-05-04 13:03 | -11.29336 | 133.64278 | 35966 ft | 502 kts | 322° |
| 2026-05-04 13:04 | -11.23681 | 133.60159 | 35967 ft | 503 kts | 322° |
| 2026-05-04 13:04 | -11.18022 | 133.56040 | 35964 ft | 503 kts | 322° |
| 2026-05-04 13:05 | -11.12344 | 133.51909 | 35964 ft | 503 kts | 322° |
| 2026-05-04 13:05 | -11.06637 | 133.47759 | 35964 ft | 503 kts | 322° |
| 2026-05-04 13:06 | -11.00972 | 133.43641 | 35962 ft | 504 kts | 322° |
| 2026-05-04 13:06 | -10.95278 | 133.39505 | 35965 ft | 504 kts | 322° |
| 2026-05-04 13:07 | -10.89561 | 133.35353 | 35962 ft | 504 kts | 322° |
| 2026-05-04 13:07 | -10.83852 | 133.31210 | 35959 ft | 504 kts | 322° |
| 2026-05-04 13:08 | -10.78148 | 133.27072 | 35961 ft | 505 kts | 322° |
| 2026-05-04 13:08 | -10.72452 | 133.22941 | 35959 ft | 505 kts | 322° |
| 2026-05-04 13:09 | -10.66735 | 133.18799 | 35955 ft | 505 kts | 322° |
| 2026-05-04 13:09 | -10.61020 | 133.14658 | 35955 ft | 505 kts | 322° |
| 2026-05-04 13:10 | -10.55295 | 133.10513 | 35956 ft | 505 kts | 322° |
| 2026-05-04 13:10 | -10.49608 | 133.06397 | 35957 ft | 506 kts | 322° |
| 2026-05-04 13:11 | -10.43878 | 133.02252 | 35953 ft | 506 kts | 322° |
| 2026-05-04 13:11 | -10.38132 | 132.98097 | 35955 ft | 506 kts | 322° |
| 2026-05-04 13:12 | -10.32400 | 132.93954 | 35952 ft | 506 kts | 322° |
| 2026-05-04 13:12 | -10.26664 | 132.89810 | 35949 ft | 507 kts | 322° |
| 2026-05-04 13:13 | -10.20944 | 132.85680 | 35944 ft | 507 kts | 322° |
| 2026-05-04 13:13 | -10.15207 | 132.81539 | 35945 ft | 507 kts | 322° |
| 2026-05-04 13:14 | -10.09757 | 132.77607 | 35948 ft | 507 kts | 322° |
| 2026-05-04 13:14 | -10.03981 | 132.73442 | 35941 ft | 508 kts | 322° |
| 2026-05-04 13:15 | -9.98247 | 132.69309 | 35944 ft | 508 kts | 322° |
| 2026-05-04 13:15 | -9.92500 | 132.65168 | 35961 ft | 508 kts | 323° |
| 2026-05-04 13:16 | -9.86767 | 132.61039 | 35957 ft | 508 kts | 323° |
| 2026-05-04 13:16 | -9.81039 | 132.56918 | 36402 ft | 498 kts | 323° |
| 2026-05-04 13:16 | -9.78228 | 132.54896 | 36852 ft | 492 kts | 323° |
| 2026-05-04 13:17 | -9.75462 | 132.52907 | 37301 ft | 487 kts | 323° |
| 2026-05-04 13:17 | -9.72718 | 132.50933 | 37751 ft | 482 kts | 323° |
| 2026-05-04 13:17 | -9.69983 | 132.48965 | 37942 ft | 483 kts | 323° |
| 2026-05-04 13:18 | -9.64462 | 132.44992 | 37956 ft | 491 kts | 323° |
| 2026-05-04 13:18 | -9.58887 | 132.40984 | 37955 ft | 495 kts | 323° |
| 2026-05-04 13:19 | -9.53270 | 132.36951 | 37955 ft | 495 kts | 323° |
| 2026-05-04 13:19 | -9.47638 | 132.32907 | 37956 ft | 495 kts | 323° |
| 2026-05-04 13:20 | -9.42035 | 132.28886 | 37951 ft | 495 kts | 323° |
| 2026-05-04 13:20 | -9.36449 | 132.24878 | 37953 ft | 495 kts | 323° |
| 2026-05-04 13:21 | -9.30830 | 132.20848 | 37951 ft | 495 kts | 323° |
| 2026-05-04 13:21 | -9.25220 | 132.16826 | 37952 ft | 495 kts | 323° |
| 2026-05-04 13:22 | -9.19598 | 132.12797 | 37952 ft | 495 kts | 323° |
| 2026-05-04 13:22 | -9.14007 | 132.08793 | 37948 ft | 495 kts | 323° |
| 2026-05-04 13:23 | -9.08387 | 132.04768 | 37951 ft | 495 kts | 323° |
| 2026-05-04 13:23 | -9.02779 | 132.00754 | 37952 ft | 495 kts | 323° |
| 2026-05-04 13:24 | -8.97154 | 131.96730 | 37950 ft | 495 kts | 323° |
| 2026-05-04 13:24 | -8.91522 | 131.92701 | 37948 ft | 495 kts | 323° |
| 2026-05-04 13:25 | -8.83111 | 131.86689 | 37951 ft | 495 kts | 323° |
| 2026-05-04 13:25 | -8.77499 | 131.82681 | 37951 ft | 495 kts | 323° |
| 2026-05-04 13:26 | -8.71930 | 131.78703 | 37952 ft | 495 kts | 323° |
| 2026-05-04 13:26 | -8.66278 | 131.74668 | 37952 ft | 495 kts | 323° |
| 2026-05-04 13:27 | -8.60663 | 131.70661 | 37951 ft | 495 kts | 323° |
| 2026-05-04 13:27 | -8.55013 | 131.66631 | 37950 ft | 495 kts | 323° |
| 2026-05-04 13:28 | -8.49398 | 131.62624 | 37951 ft | 495 kts | 323° |
| 2026-05-04 13:28 | -8.43768 | 131.58610 | 37947 ft | 495 kts | 323° |
| 2026-05-04 13:29 | -8.38176 | 131.54627 | 37949 ft | 495 kts | 323° |
| 2026-05-04 13:29 | -8.32534 | 131.50607 | 37947 ft | 496 kts | 323° |
| 2026-05-04 13:30 | -8.26901 | 131.46598 | 37950 ft | 496 kts | 324° |
| 2026-05-04 13:30 | -8.21301 | 131.42612 | 37948 ft | 496 kts | 323° |
| 2026-05-04 13:31 | -8.15665 | 131.38602 | 37950 ft | 496 kts | 324° |
| 2026-05-04 13:31 | -8.10016 | 131.34584 | 37952 ft | 496 kts | 324° |
| 2026-05-04 13:32 | -8.04369 | 131.30576 | 37947 ft | 497 kts | 324° |
| 2026-05-04 13:32 | -7.98765 | 131.26584 | 37951 ft | 497 kts | 324° |
| 2026-05-04 13:33 | -7.93092 | 131.22537 | 37946 ft | 498 kts | 324° |
| 2026-05-04 13:33 | -7.87428 | 131.18503 | 37948 ft | 499 kts | 324° |
| 2026-05-04 13:34 | -7.81738 | 131.14455 | 37947 ft | 500 kts | 324° |
| 2026-05-04 13:34 | -7.76105 | 131.10450 | 37944 ft | 501 kts | 324° |
| 2026-05-04 13:35 | -7.67550 | 131.04369 | 37942 ft | 501 kts | 325° |
| 2026-05-04 13:36 | -7.61846 | 131.00316 | 37944 ft | 501 kts | 325° |
| 2026-05-04 13:36 | -7.56143 | 130.96266 | 37942 ft | 501 kts | 325° |
| 2026-05-04 13:37 | -7.50455 | 130.92227 | 37946 ft | 501 kts | 325° |
| 2026-05-04 13:37 | -7.44777 | 130.88197 | 37942 ft | 502 kts | 325° |
| 2026-05-04 13:38 | -7.39083 | 130.84157 | 37939 ft | 502 kts | 325° |
| 2026-05-04 13:38 | -7.33349 | 130.80090 | 37942 ft | 503 kts | 325° |
| 2026-05-04 13:39 | -7.27672 | 130.76065 | 37938 ft | 503 kts | 325° |
| 2026-05-04 13:39 | -7.21954 | 130.72011 | 37938 ft | 504 kts | 325° |
| 2026-05-04 13:40 | -7.16202 | 130.67934 | 37937 ft | 505 kts | 325° |
| 2026-05-04 13:40 | -7.10466 | 130.63871 | 37940 ft | 505 kts | 326° |
| 2026-05-04 13:41 | -7.04715 | 130.59799 | 37939 ft | 506 kts | 326° |
| 2026-05-04 13:41 | -6.98997 | 130.55750 | 37938 ft | 507 kts | 325° |
| 2026-05-04 13:42 | -6.90320 | 130.49608 | 37939 ft | 507 kts | 325° |
| 2026-05-04 13:42 | -6.84558 | 130.45531 | 37935 ft | 508 kts | 325° |
| 2026-05-04 13:43 | -6.78811 | 130.41467 | 37938 ft | 508 kts | 325° |
| 2026-05-04 13:43 | -6.73026 | 130.37376 | 37937 ft | 509 kts | 325° |
| 2026-05-04 13:44 | -6.67219 | 130.33271 | 37939 ft | 509 kts | 325° |
| 2026-05-04 13:44 | -6.61451 | 130.29196 | 37932 ft | 510 kts | 325° |
| 2026-05-04 13:45 | -6.55614 | 130.25072 | 37933 ft | 511 kts | 325° |
| 2026-05-04 13:45 | -6.49829 | 130.20986 | 37936 ft | 511 kts | 325° |
| 2026-05-04 13:46 | -6.44003 | 130.16872 | 37936 ft | 512 kts | 325° |
| 2026-05-04 13:46 | -6.38169 | 130.12755 | 37933 ft | 512 kts | 325° |
| 2026-05-04 13:47 | -6.32352 | 130.08650 | 37933 ft | 512 kts | 325° |
| 2026-05-04 13:47 | -6.26550 | 130.04557 | 37933 ft | 512 kts | 325° |
| 2026-05-04 13:48 | -6.20719 | 130.00445 | 37934 ft | 513 kts | 325° |
| 2026-05-04 13:48 | -6.14865 | 129.96318 | 37931 ft | 514 kts | 325° |
| 2026-05-04 13:49 | -6.09014 | 129.92194 | 37929 ft | 514 kts | 325° |
| 2026-05-04 13:49 | -6.03202 | 129.88098 | 37933 ft | 514 kts | 325° |
| 2026-05-04 13:50 | -5.97350 | 129.83976 | 37932 ft | 514 kts | 325° |
| 2026-05-04 13:50 | -5.91472 | 129.79836 | 37927 ft | 515 kts | 325° |
| 2026-05-04 13:51 | -5.85601 | 129.75702 | 37928 ft | 515 kts | 325° |
| 2026-05-04 13:51 | -5.79777 | 129.71602 | 37929 ft | 516 kts | 325° |